createdAt,value
2023-04-12T00:01:41.701Z,59.05
2023-04-12T00:06:43.212Z,59.93
2023-04-12T00:11:44.768Z,59.59
2023-04-12T00:16:46.233Z,58.99
2023-04-12T00:21:47.702Z,58.85
2023-04-12T00:26:49.151Z,58.89
2023-04-12T00:31:50.610Z,58.29
2023-04-12T00:36:52.080Z,59.37
2023-04-12T00:41:53.655Z,58.52
2023-04-12T00:46:55.295Z,59.24
2023-04-12T00:52:02.229Z,60.50
2023-04-12T00:57:05.548Z,61.32
2023-04-12T01:02:07.680Z,60.62
2023-04-12T01:07:31.700Z,60.95
2023-04-12T01:12:39.967Z,61.30
2023-04-12T01:17:58.894Z,61.58
2023-04-12T01:23:30.895Z,61.48
2023-04-12T01:28:35.531Z,62.16
2023-04-12T01:33:38.447Z,61.87
2023-04-12T01:38:41.557Z,61.83
2023-04-12T01:43:44.733Z,61.15
2023-04-12T01:48:50.139Z,61.32
2023-04-12T01:53:57.075Z,61.00
2023-04-12T01:59:02.207Z,60.99
2023-04-12T02:04:05.146Z,60.79
2023-04-12T02:09:06.756Z,60.57
2023-04-12T02:14:08.223Z,61.45
2023-04-12T02:19:09.747Z,61.63
2023-04-12T02:24:11.843Z,60.80
2023-04-12T02:29:13.301Z,61.04
2023-04-12T02:34:14.941Z,60.76
2023-04-12T02:39:22.477Z,60.78
2023-04-12T02:44:29.527Z,60.25
2023-04-12T02:49:44.725Z,60.92
2023-04-12T02:54:51.007Z,61.43
2023-04-12T02:59:52.752Z,61.57
2023-04-12T03:04:58.279Z,61.82
2023-04-12T03:10:10.299Z,62.23
2023-04-12T03:15:16.561Z,61.46
2023-04-12T03:20:21.929Z,61.75
2023-04-12T03:25:32.279Z,61.67
2023-04-12T03:30:46.754Z,62.13
2023-04-12T03:35:50.154Z,62.85
2023-04-12T03:40:52.032Z,62.38
2023-04-12T03:46:05.192Z,62.64
2023-04-12T03:51:08.310Z,62.70
2023-04-12T03:56:12.908Z,62.34
2023-04-12T04:01:17.088Z,62.48
2023-04-12T04:06:19.338Z,62.70
2023-04-12T04:11:21.095Z,62.03
2023-04-12T04:16:27.284Z,62.15
2023-04-12T04:21:29.367Z,61.80
2023-04-12T04:26:32.860Z,62.30
2023-04-12T04:31:42.453Z,60.56
2023-04-12T04:36:44.273Z,61.74
2023-04-12T04:41:48.878Z,61.78
2023-04-12T04:46:59.501Z,62.32
2023-04-12T04:52:01.437Z,62.11
2023-04-12T04:57:02.950Z,62.81
2023-04-12T05:02:04.538Z,62.94
2023-04-12T05:07:06.060Z,62.48
2023-04-12T05:12:08.130Z,63.11
2023-04-12T05:17:10.909Z,62.84
2023-04-12T05:22:12.378Z,62.95
2023-04-12T05:27:14.647Z,63.03
2023-04-12T05:32:16.179Z,62.80
2023-04-12T05:37:17.801Z,62.63
2023-04-12T05:42:19.341Z,63.06
2023-04-12T05:47:20.788Z,62.54
2023-04-12T05:52:23.322Z,62.11
2023-04-12T05:57:25.559Z,61.85
2023-04-12T06:02:27.279Z,61.83
2023-04-12T06:07:29.013Z,62.16
2023-04-12T06:12:31.762Z,62.43
2023-04-12T06:17:34.732Z,62.70
2023-04-12T06:22:37.695Z,61.75
2023-04-12T06:27:40.023Z,62.27
2023-04-12T06:32:42.288Z,63.21
2023-04-12T06:37:43.885Z,63.35
2023-04-12T06:42:45.426Z,63.30
2023-04-12T06:47:46.924Z,63.13
2023-04-12T06:52:48.428Z,62.26
2023-04-12T06:57:49.865Z,62.48
2023-04-12T07:02:51.615Z,63.00
2023-04-12T07:07:53.200Z,62.18
2023-04-12T07:12:54.679Z,62.06
2023-04-12T07:17:56.188Z,61.68
2023-04-12T07:22:57.763Z,61.82
2023-04-12T07:27:59.384Z,59.91
2023-04-12T07:33:12.383Z,59.74
2023-04-12T07:38:17.989Z,58.72
2023-04-12T07:43:19.485Z,57.56
2023-04-12T07:48:21.055Z,58.77
2023-04-12T07:53:24.484Z,58.61
2023-04-12T07:58:25.982Z,59.51
2023-04-12T08:03:27.623Z,58.79
2023-04-12T08:08:29.211Z,57.55
2023-04-12T08:13:30.636Z,57.91
2023-04-12T08:18:32.130Z,56.90
2023-04-12T08:23:33.673Z,56.08
2023-04-12T08:28:35.692Z,57.19
2023-04-12T08:33:37.902Z,57.31
2023-04-12T08:38:45.781Z,56.70
2023-04-12T08:43:47.898Z,55.76
2023-04-12T08:48:51.755Z,55.84
2023-04-12T08:53:53.274Z,53.49
2023-04-12T08:58:55.174Z,51.41
2023-04-12T09:03:56.939Z,50.35
2023-04-12T09:08:58.837Z,50.48
2023-04-12T09:14:00.449Z,45.65
2023-04-12T09:19:02.183Z,44.11
2023-04-12T09:24:07.601Z,44.83
2023-04-12T09:29:23.697Z,43.09
2023-04-12T09:34:26.629Z,41.76
2023-04-12T09:39:33.564Z,41.11
2023-04-12T09:44:35.943Z,41.53
2023-04-12T09:49:42.354Z,41.82
2023-04-12T09:54:46.934Z,42.64
2023-04-12T09:59:49.612Z,43.01
2023-04-12T10:04:51.941Z,40.96
2023-04-12T10:09:53.651Z,40.23
2023-04-12T10:14:55.804Z,38.38
2023-04-12T10:19:57.606Z,38.36
2023-04-12T10:24:59.718Z,38.19
2023-04-12T10:30:22.940Z,38.07
2023-04-12T10:35:24.507Z,38.68
2023-04-12T10:40:26.025Z,39.87
2023-04-12T10:45:33.673Z,39.92
2023-04-12T10:50:35.274Z,41.10
2023-04-12T10:55:40.397Z,40.83
2023-04-12T11:00:57.074Z,41.28
2023-04-12T11:06:04.573Z,42.04
2023-04-12T11:11:34.626Z,42.19
2023-04-12T11:17:07.973Z,42.55
2023-04-12T11:22:11.577Z,41.72
2023-04-12T11:27:15.647Z,42.93
2023-04-12T11:32:18.620Z,45.58
2023-04-12T11:37:20.656Z,46.34
2023-04-12T11:42:24.552Z,46.19
2023-04-12T11:47:26.307Z,45.48
2023-04-12T11:52:29.855Z,46.54
2023-04-12T11:57:31.375Z,45.24
2023-04-12T12:02:40.723Z,44.85
2023-04-12T12:07:48.020Z,45.21
2023-04-12T12:12:49.488Z,44.99
2023-04-12T12:17:51.247Z,43.50
2023-04-12T12:22:52.756Z,42.33
2023-04-12T12:27:57.551Z,42.70
2023-04-12T12:32:59.108Z,44.05
2023-04-12T12:38:00.581Z,43.07
2023-04-12T12:43:02.195Z,42.26
2023-04-12T12:48:04.625Z,41.79
2023-04-12T12:53:06.317Z,42.06
2023-04-12T12:58:08.554Z,41.30
2023-04-12T13:03:10.279Z,41.12
2023-04-12T13:08:11.876Z,41.54
2023-04-12T13:13:13.386Z,40.98
2023-04-12T13:18:14.905Z,40.97
2023-04-12T13:23:16.353Z,42.08
2023-04-12T13:28:17.768Z,41.90
2023-04-12T13:33:21.880Z,41.78
2023-04-12T13:38:23.657Z,43.05
2023-04-12T13:43:25.191Z,42.22
2023-04-12T13:48:26.646Z,42.51
2023-04-12T13:53:28.229Z,42.03
2023-04-12T13:58:29.684Z,44.12
2023-04-12T14:03:31.173Z,43.52
2023-04-12T14:08:33.345Z,42.89
2023-04-12T14:13:34.854Z,42.45
2023-04-12T14:18:36.376Z,42.46
2023-04-12T14:23:37.935Z,42.51
2023-04-12T14:28:39.458Z,42.49
2023-04-12T14:33:40.857Z,42.73
2023-04-12T14:38:42.266Z,42.54
2023-04-12T14:43:43.705Z,41.13
2023-04-12T14:48:45.195Z,41.80
2023-04-12T14:53:46.828Z,42.63
2023-04-12T14:58:48.727Z,43.15
2023-04-12T15:03:50.847Z,42.24
2023-04-12T15:08:52.661Z,42.80
2023-04-12T15:13:54.971Z,43.82
2023-04-12T15:18:57.992Z,44.18
2023-04-12T15:24:00.579Z,44.81
2023-04-12T15:29:02.502Z,46.40
2023-04-12T15:34:03.985Z,48.62
2023-04-12T15:39:05.386Z,49.50
2023-04-12T15:44:08.171Z,51.18
2023-04-12T15:49:10.926Z,52.68
2023-04-12T15:54:12.448Z,52.69
2023-04-12T15:59:13.955Z,52.92
2023-04-12T16:04:15.450Z,53.98
2023-04-12T16:09:17.029Z,55.48
2023-04-12T16:14:18.608Z,55.27
2023-04-12T16:19:20.292Z,55.10
2023-04-12T16:24:21.887Z,55.58
2023-04-12T16:29:23.397Z,57.28
2023-04-12T16:34:24.836Z,57.65
2023-04-12T16:39:26.366Z,57.91
2023-04-12T16:44:27.828Z,59.66
2023-04-12T16:49:29.328Z,60.38
2023-04-12T16:54:30.906Z,60.70
2023-04-12T16:59:32.584Z,60.42
2023-04-12T17:04:34.555Z,59.86
2023-04-12T17:09:36.180Z,60.46
2023-04-12T17:14:37.646Z,60.95
2023-04-12T17:19:39.117Z,61.77
2023-04-12T17:24:40.544Z,61.32
2023-04-12T17:29:42.015Z,60.36
2023-04-12T17:34:43.473Z,60.25
2023-04-12T17:39:44.981Z,60.34
2023-04-12T17:44:47.178Z,59.36
2023-04-12T17:49:49.382Z,60.75
2023-04-12T17:54:50.944Z,60.05
2023-04-12T17:59:52.392Z,60.06
2023-04-12T18:04:53.845Z,58.59
2023-04-12T18:09:55.351Z,59.21
2023-04-12T18:14:56.905Z,59.48
2023-04-12T18:19:59.061Z,59.87
2023-04-12T18:25:01.507Z,60.59
2023-04-12T18:30:03.368Z,60.47
2023-04-12T18:35:05.307Z,60.88
2023-04-12T18:40:07.176Z,61.71
2023-04-12T18:45:09.195Z,62.25
2023-04-12T18:50:10.755Z,61.99
2023-04-12T18:55:12.183Z,60.77
2023-04-12T19:00:13.937Z,59.50
2023-04-12T19:05:15.650Z,59.29
2023-04-12T19:10:18.333Z,60.00
2023-04-12T19:15:20.674Z,60.46
2023-04-12T19:20:22.506Z,60.76
2023-04-12T19:25:24.650Z,61.11
2023-04-12T19:30:27.210Z,60.69
2023-04-12T19:35:30.562Z,60.04
2023-04-12T19:40:33.380Z,60.08
2023-04-12T19:45:35.747Z,60.28
2023-04-12T19:50:38.585Z,59.60
2023-04-12T19:55:40.884Z,59.43
2023-04-12T20:00:42.789Z,60.70
2023-04-12T20:05:44.987Z,60.53
2023-04-12T20:10:48.217Z,61.16
2023-04-12T20:15:50.619Z,61.22
2023-04-12T20:20:54.558Z,61.34
2023-04-12T20:25:57.481Z,59.16
2023-04-12T20:31:03.004Z,60.37
2023-04-12T20:36:05.660Z,60.75
2023-04-12T20:41:07.491Z,60.47
2023-04-12T20:46:09.476Z,60.68
2023-04-12T20:51:12.269Z,60.27
2023-04-12T20:56:15.259Z,61.29
2023-04-12T21:01:16.915Z,61.16
2023-04-12T21:06:18.512Z,61.26
2023-04-12T21:11:20.067Z,61.25
2023-04-12T21:16:21.607Z,60.25
2023-04-12T21:21:23.096Z,61.21
2023-04-12T21:26:24.582Z,61.35
2023-04-12T21:31:26.125Z,62.25
2023-04-12T21:36:27.849Z,61.62
2023-04-12T21:41:29.386Z,58.22
2023-04-12T21:46:30.818Z,58.33
2023-04-12T21:51:32.386Z,59.64
2023-04-12T21:56:33.892Z,60.15
2023-04-12T22:01:35.440Z,60.06
2023-04-12T22:06:37.015Z,59.50
2023-04-12T22:11:38.454Z,59.04
2023-04-12T22:16:39.998Z,58.69
2023-04-12T22:21:41.493Z,57.72
2023-04-12T22:26:42.989Z,58.26
2023-04-12T22:31:47.430Z,58.19
2023-04-12T22:36:49.066Z,58.71
2023-04-12T22:41:50.889Z,58.24
2023-04-12T22:46:54.361Z,57.57
2023-04-12T22:51:56.408Z,58.28
2023-04-12T22:56:57.890Z,58.44
2023-04-12T23:01:59.393Z,57.92
2023-04-12T23:07:01.008Z,57.21
2023-04-12T23:12:02.571Z,57.39
2023-04-12T23:17:04.016Z,57.26
2023-04-12T23:22:05.431Z,56.85
2023-04-12T23:27:06.862Z,56.73
2023-04-12T23:32:08.305Z,56.58
2023-04-12T23:37:09.836Z,56.75
2023-04-12T23:42:11.355Z,58.05
2023-04-12T23:47:12.855Z,58.15
2023-04-12T23:52:15.415Z,59.18
2023-04-12T23:57:16.853Z,59.51
